Skip Navigation Links Skip Navigation Links

Current Weather

Scottsdale, Ariz.

For information only: do not use for flight planning or navigation.
Latest weather
Observation time Monday, October 18, 2021 11:53 AM MST
Local time Monday, October 18, 2021 12:12 PM MST
Flight conditions Visual Meteorological Conditions
Winds
Wind direction Southwest (230°)
Wind speed 10 mph
Visibility 10 mi.
Sky condition
Ceiling unlimited
Sky clear
Temperature 77°F
Dewpoint 51°F
Altimeter 29.90 in.Hg
Derived measurements
Relative humidity 40%
Heat index 77°F
Density altitude 2874 ft.
Sea-level pressure 29.83 in.Hg
Remarks
Automated weather observing station with precipitation discriminator.
METAR KSDL 181853Z 23009KT 10SM CLR 25/11 A2990 RMK AO2 SLP103 T02500106

Settings

Location code

InnerDrive.Weather 4.0.6770.0 Release CLR 4.0.30319.42000
Copyright ©2018 Inner Drive Technology. All rights reserved. Portions Copyright ©1986-2018 David Braverman.

Find weather

Site navigation


Skip Navigation Links

Place info

Page info

PayPal - The safer, easier way to pay online!

Return home.

Copyright ©2021 Inner Drive Technology. Purveyors of fine, hand-crafted computer software. Page printed 2021-10-18T19:12:37 UTC.